Time;durP1;ratioP1;P1;durP2;ratioP2;P2;SDS_P1;SDS_P2;PMS_P1;PMS_P2;Temp;Humidity;BMP_temperature;BMP_pressure;BME280_temperature;BME280_humidity;BME280_pressure;Samples;Min_cycle;Max_cycle;Signal;HPM_P1;HPM_P2
2022/06/14 00:01:03;;;;;;;1.75;0.00;;;10.30;99.90;;;;;;5116888;28;20024;-72
2022/06/14 00:03:33;;;;;;;6.25;1.20;;;10.30;99.90;;;;;;5116289;28;20024;-72
2022/06/14 00:06:12;;;;;;;4.15;0.50;;;10.20;99.90;;;;;;5097922;28;20396;-72
2022/06/14 00:08:38;;;;;;;6.22;0.30;;;10.20;99.90;;;;;;5116348;28;20028;-72
2022/06/14 00:11:13;;;;;;;7.30;0.68;;;10.20;99.90;;;;;;5116000;28;20047;-72
2022/06/14 00:13:39;;;;;;;7.15;0.00;;;10.20;99.90;;;;;;5115975;28;20369;-72
2022/06/14 00:16:06;;;;;;;3.80;0.13;;;10.10;99.90;;;;;;5115581;28;20085;-72
2022/06/14 00:18:32;;;;;;;1.95;0.10;;;10.10;99.90;;;;;;5114371;28;20058;-72
2022/06/14 00:20:57;;;;;;;1.15;0.00;;;10.10;99.90;;;;;;5096718;28;20024;-72
2022/06/14 00:23:23;;;;;;;6.50;0.60;;;10.10;99.90;;;;;;5116063;28;20024;-72
2022/06/14 00:25:53;;;;;;;6.97;0.90;;;10.10;99.90;;;;;;5097423;28;20115;-72
2022/06/14 00:28:20;;;;;;;2.40;0.25;;;10.10;99.90;;;;;;5097973;28;20019;-74
2022/06/14 00:30:49;;;;;;;2.47;0.00;;;10.10;99.90;;;;;;5097959;28;20093;-72
2022/06/14 00:33:16;;;;;;;9.00;0.20;;;10.10;99.90;;;;;;5115758;28;20027;-73
2022/06/14 00:35:41;;;;;;;3.38;0.00;;;10.10;99.90;;;;;;5097668;28;20016;-73
2022/06/14 00:38:09;;;;;;;2.75;0.50;;;10.10;99.90;;;;;;5097290;28;20020;-73
2022/06/14 00:40:37;;;;;;;4.10;0.00;;;10.10;99.90;;;;;;5115582;28;20019;-73
2022/06/14 00:43:11;;;;;;;7.03;0.50;;;10.10;99.90;;;;;;5097649;28;20281;-73
2022/06/14 00:45:36;;;;;;;2.97;0.30;;;10.10;99.90;;;;;;5116165;28;20078;-73
2022/06/14 00:48:18;;;;;;;1.45;0.40;;;10.00;99.90;;;;;;5115821;28;20020;-74
2022/06/14 00:50:56;;;;;;;7.85;1.10;;;10.00;99.90;;;;;;5115225;28;20036;-74
2022/06/14 00:53:29;;;;;;;7.05;1.20;;;10.00;99.90;;;;;;5096860;28;20024;-74
2022/06/14 00:56:35;;;;;;;7.80;0.90;;;10.00;99.90;;;;;;5114968;28;20023;-74
2022/06/14 00:59:48;;;;;;;2.90;0.20;;;10.00;99.90;;;;;;5114784;28;20026;-74
2022/06/14 01:02:18;;;;;;;1.75;0.13;;;10.00;99.90;;;;;;5096166;28;20035;-71
2022/06/14 01:04:46;;;;;;;2.17;0.13;;;9.90;99.90;;;;;;5114917;28;20384;-71
2022/06/14 01:07:27;;;;;;;2.63;0.30;;;9.90;99.90;;;;;;5114863;28;20025;-71
2022/06/14 01:10:16;;;;;;;3.65;0.00;;;9.80;99.90;;;;;;5097378;28;20035;-72
2022/06/14 01:12:47;;;;;;;3.95;0.10;;;9.80;99.90;;;;;;5115343;28;20024;-72
2022/06/14 01:15:26;;;;;;;5.15;1.25;;;9.80;99.90;;;;;;5114602;28;20030;-72
2022/06/14 01:18:07;;;;;;;3.65;0.10;;;9.70;99.90;;;;;;5096466;28;20023;-72
2022/06/14 01:20:35;;;;;;;3.10;0.00;;;9.70;99.90;;;;;;5136497;22;20039;-73
2022/06/14 01:23:01;;;;;;;4.80;0.13;;;9.00;99.90;;;;;;5096467;28;20475;-72
2022/06/14 01:25:33;;;;;;;3.10;0.75;;;9.50;99.90;;;;;;5114607;28;20015;-72
2022/06/14 01:28:01;;;;;;;2.72;0.00;;;9.70;99.90;;;;;;5096346;28;20082;-72
2022/06/14 01:30:31;;;;;;;2.40;0.22;;;9.70;99.90;;;;;;5115065;28;20023;-73
2022/06/14 01:33:11;;;;;;;4.60;0.10;;;9.60;99.90;;;;;;5096353;28;20016;-73
2022/06/14 01:35:40;;;;;;;1.88;0.30;;;9.60;99.90;;;;;;5096327;28;20119;-72
2022/06/14 01:38:10;;;;;;;1.20;0.20;;;9.50;99.90;;;;;;5114496;28;20023;-72
2022/06/14 01:40:59;;;;;;;3.00;0.00;;;9.50;99.90;;;;;;5096252;28;20057;-72
2022/06/14 01:43:55;;;;;;;3.72;0.10;;;9.40;99.90;;;;;;5114769;28;20027;-73
2022/06/14 01:46:27;;;;;;;4.72;0.40;;;9.40;99.90;;;;;;5114287;28;20084;-73
2022/06/14 01:51:51;;;;;;;2.10;0.10;;;9.30;99.90;;;;;;5011659;28;20370;-75
2022/06/14 01:54:42;;;;;;;1.65;0.05;;;8.10;99.90;;;;;;4995911;28;20029;-76
2022/06/14 01:57:27;;;;;;;3.65;0.38;;;9.20;99.90;;;;;;4995448;28;20429;-76
2022/06/14 02:00:01;;;;;;;5.55;0.43;;;9.30;99.90;;;;;;5012869;28;20029;-76
2022/06/14 02:05:54;;;;;;;2.17;0.22;;;9.20;99.90;;;;;;4972754;28;20092;-76
2022/06/14 02:08:26;;;;;;;3.58;0.65;;;9.10;99.90;;;;;;5014000;28;20422;-75
2022/06/14 02:11:08;;;;;;;4.68;0.10;;;9.10;99.90;;;;;;5013534;28;20033;-75
2022/06/14 02:13:43;;;;;;;2.22;0.10;;;9.10;99.90;;;;;;5013561;28;20391;-76
2022/06/14 02:16:32;;;;;;;2.75;0.10;;;9.10;99.90;;;;;;4996011;28;20368;-75
2022/06/14 02:19:12;;;;;;;1.15;0.25;;;9.00;99.90;;;;;;4995438;28;20037;-75
2022/06/14 02:21:46;;;;;;;3.53;0.20;;;10.00;99.90;;;;;;4996225;28;20026;-76
2022/06/14 02:24:41;;;;;;;1.00;0.13;;;9.00;99.90;;;;;;4995790;28;20022;-76
2022/06/14 02:27:30;;;;;;;1.67;0.47;;;9.00;99.90;;;;;;4995894;28;20449;-76
2022/06/14 02:29:59;;;;;;;;;;;9.00;99.90;;;;;;5014599;28;20076;-77
2022/06/14 02:32:31;;;;;;;3.13;0.65;;;8.90;99.90;;;;;;5013682;28;19992;-76
2022/06/14 02:35:02;;;;;;;5.28;0.15;;;8.90;99.90;;;;;;4995848;28;20050;-76
2022/06/14 02:37:59;;;;;;;1.20;0.00;;;8.90;99.90;;;;;;5013502;28;20037;-77
2022/06/14 02:40:29;;;;;;;6.50;0.85;;;8.90;99.90;;;;;;5013516;28;20467;-77
2022/06/14 02:43:04;;;;;;;6.30;0.15;;;8.90;99.90;;;;;;5013574;28;20080;-77
2022/06/14 02:45:38;;;;;;;4.35;0.13;;;8.90;99.90;;;;;;5013545;28;20026;-76
2022/06/14 02:48:12;;;;;;;3.40;0.65;;;8.80;99.90;;;;;;4996386;28;20059;-77
2022/06/14 02:51:13;;;;;;;2.42;0.08;;;8.80;99.90;;;;;;5013133;28;20026;-77
2022/06/14 02:53:51;;;;;;;1.25;0.00;;;8.70;99.90;;;;;;4992152;28;20041;-76
2022/06/14 02:56:34;;;;;;;0.57;0.00;;;8.70;99.90;;;;;;5013273;28;20045;-75
2022/06/14 02:59:06;;;;;;;2.13;0.47;;;8.70;99.90;;;;;;5013551;28;20041;-75
2022/06/14 03:01:37;;;;;;;4.35;0.10;;;8.60;99.90;;;;;;5013395;28;20030;-75
2022/06/14 03:04:17;;;;;;;3.70;0.13;;;8.60;99.90;;;;;;5013699;28;20030;-75
2022/06/14 03:06:57;;;;;;;2.17;0.00;;;8.60;99.90;;;;;;5013295;28;20040;-75
2022/06/14 03:09:25;;;;;;;1.60;0.20;;;8.60;99.90;;;;;;4995916;28;20055;-75
2022/06/14 03:12:08;;;;;;;;;;;8.60;99.90;;;;;;5014001;28;20030;-75
2022/06/14 03:15:01;;;;;;;7.10;0.00;;;8.50;99.90;;;;;;5013490;28;19909;-76
2022/06/14 03:17:34;;;;;;;4.25;0.45;;;8.50;99.90;;;;;;5013021;28;20077;-76
2022/06/14 03:20:16;;;;;;;2.67;0.20;;;8.50;99.90;;;;;;5012970;28;20033;-76
2022/06/14 03:22:45;;;;;;;1.90;0.63;;;8.50;99.90;;;;;;5013672;28;20084;-76
2022/06/14 03:25:34;;;;;;;1.73;0.00;;;8.50;99.90;;;;;;5016388;28;20034;-75
2022/06/14 03:28:08;;;;;;;1.42;0.10;;;8.40;99.90;;;;;;5016023;28;20038;-75
2022/06/14 03:30:35;;;;;;;1.60;0.20;;;8.40;99.90;;;;;;5016505;28;20030;-75
2022/06/14 03:33:05;;;;;;;0.93;0.00;;;8.40;99.90;;;;;;5016305;28;20491;-76
2022/06/14 03:35:36;;;;;;;4.15;0.00;;;8.40;99.90;;;;;;5016330;28;20022;-76
2022/06/14 03:38:12;;;;;;;2.08;0.35;;;8.40;99.90;;;;;;4998864;28;20368;-75
2022/06/14 03:40:44;;;;;;;3.72;0.55;;;8.40;99.90;;;;;;5016459;28;20505;-72
2022/06/14 03:43:10;;;;;;;1.00;0.20;;;8.40;99.90;;;;;;5016839;28;20022;-74
2022/06/14 03:45:55;;;;;;;3.10;0.30;;;8.40;99.90;;;;;;5015986;28;20026;-74
2022/06/14 03:48:21;;;;;;;1.65;0.13;;;8.40;99.90;;;;;;5016125;28;20022;-74
2022/06/14 03:50:56;;;;;;;2.00;0.20;;;8.40;99.90;;;;;;5015995;28;20022;-74
2022/06/14 03:53:37;;;;;;;3.22;0.10;;;8.40;99.90;;;;;;4998500;28;20129;-74
2022/06/14 03:56:39;;;;;;;4.10;0.20;;;8.40;99.90;;;;;;5016044;28;20550;-75
2022/06/14 03:59:45;;;;;;;3.08;0.10;;;8.40;99.90;;;;;;4998483;28;20394;-74
2022/06/14 04:02:19;;;;;;;3.17;0.17;;;8.40;99.90;;;;;;5015997;28;20021;-73
2022/06/14 04:05:22;;;;;;;2.95;0.10;;;8.40;99.90;;;;;;5015803;28;20025;-75
2022/06/14 04:07:55;;;;;;;5.10;0.65;;;8.50;99.90;;;;;;4998527;28;20040;-75
2022/06/14 04:10:43;;;;;;;8.52;0.77;;;8.50;99.90;;;;;;5015883;28;20029;-73
2022/06/14 04:13:28;;;;;;;5.25;0.20;;;8.50;99.90;;;;;;5016270;28;20037;-74
2022/06/14 04:16:14;;;;;;;3.50;0.40;;;8.50;99.90;;;;;;4998095;28;20083;-75
2022/06/14 04:18:52;;;;;;;1.83;0.15;;;8.60;99.90;;;;;;5015527;28;20026;-73
2022/06/14 04:21:59;;;;;;;2.80;0.17;;;8.60;99.90;;;;;;5015431;28;20102;-73
2022/06/14 04:24:37;;;;;;;4.82;0.20;;;8.70;99.90;;;;;;4985123;28;20465;-73
2022/06/14 04:27:10;;;;;;;2.63;0.20;;;8.70;99.90;;;;;;4997755;28;20041;-73
2022/06/14 04:29:44;;;;;;;3.22;0.30;;;8.80;99.90;;;;;;5015852;28;20072;-73
2022/06/14 04:32:25;;;;;;;3.58;0.10;;;8.90;99.90;;;;;;4997720;28;20494;-73
2022/06/14 04:35:06;;;;;;;3.65;0.17;;;9.00;99.90;;;;;;5015419;28;20030;-73
2022/06/14 04:37:35;;;;;;;3.92;0.28;;;9.00;99.90;;;;;;5015376;28;20104;-73
2022/06/14 04:40:20;;;;;;;4.45;0.43;;;9.20;99.90;;;;;;5015149;28;20107;-73
2022/06/14 04:43:01;;;;;;;3.45;0.20;;;9.30;99.90;;;;;;5015174;28;20557;-73
2022/06/14 04:45:57;;;;;;;1.85;0.10;;;9.40;99.90;;;;;;5015063;28;20021;-74
2022/06/14 04:48:42;;;;;;;7.35;0.93;;;9.50;99.90;;;;;;5015518;28;20022;-73
2022/06/14 04:51:31;;;;;;;3.05;0.40;;;9.70;99.90;;;;;;5014812;28;20125;-73
2022/06/14 04:54:04;;;;;;;4.63;0.82;;;9.80;99.90;;;;;;5015385;28;20034;-73
2022/06/14 04:56:37;;;;;;;2.42;0.03;;;9.90;99.90;;;;;;5015632;28;20018;-73
2022/06/14 04:59:15;;;;;;;3.25;0.15;;;10.10;99.90;;;;;;4997036;28;20018;-72
2022/06/14 05:01:45;;;;;;;;;;;10.20;99.90;;;;;;5015827;28;20022;-73
2022/06/14 05:04:14;;;;;;;4.63;0.25;;;10.30;99.90;;;;;;5014800;28;20282;-73
2022/06/14 05:06:52;;;;;;;2.35;0.10;;;10.50;99.90;;;;;;5014758;28;20472;-74
2022/06/14 05:09:33;;;;;;;2.97;0.13;;;10.60;99.90;;;;;;5014747;28;20045;-73
2022/06/14 05:11:58;;;;;;;3.72;0.10;;;10.80;99.90;;;;;;4997179;28;20439;-74
2022/06/14 05:14:41;;;;;;;7.32;0.65;;;10.90;99.90;;;;;;4996840;28;20072;-73
2022/06/14 05:17:38;;;;;;;3.65;0.60;;;11.00;99.90;;;;;;4997495;28;20037;-73
2022/06/14 05:20:27;;;;;;;5.43;0.67;;;11.10;99.90;;;;;;5014685;28;20049;-74
2022/06/14 05:23:11;;;;;;;4.60;0.22;;;11.30;99.90;;;;;;4996928;28;20022;-74
2022/06/14 05:25:59;;;;;;;2.95;0.17;;;11.50;99.90;;;;;;5014688;28;20048;-74
2022/06/14 05:29:06;;;;;;;29.02;1.33;;;11.70;99.90;;;;;;5014084;28;20487;-74
2022/06/14 05:31:47;;;;;;;4.85;0.60;;;11.90;99.90;;;;;;4981031;28;20033;-74
2022/06/14 05:34:33;;;;;;;5.38;0.40;;;12.10;99.90;;;;;;5013475;28;20026;-74
2022/06/14 05:37:01;;;;;;;3.85;0.50;;;12.30;99.90;;;;;;5013174;28;20034;-73
2022/06/14 05:39:37;;;;;;;2.88;0.40;;;12.50;99.90;;;;;;5014089;28;20101;-73
2022/06/14 05:42:13;;;;;;;2.95;0.20;;;12.80;99.90;;;;;;5014152;28;20018;-74
2022/06/14 05:44:45;;;;;;;4.55;0.63;;;12.90;99.90;;;;;;5014050;28;20022;-74
2022/06/14 05:47:18;;;;;;;3.70;0.15;;;13.20;99.90;;;;;;5013611;28;20033;-76
2022/06/14 05:49:50;;;;;;;5.45;0.30;;;13.30;99.90;;;;;;4996266;28;20517;-75
2022/06/14 05:52:26;;;;;;;6.10;0.55;;;13.60;99.90;;;;;;5014051;28;20040;-75
2022/06/14 05:55:07;;;;;;;1.35;0.15;;;13.70;99.90;;;;;;5013715;28;20068;-75
2022/06/14 05:58:17;;;;;;;7.68;1.13;;;13.90;99.90;;;;;;5014345;28;20467;-75
2022/06/14 06:00:57;;;;;;;5.82;0.73;;;14.10;99.90;;;;;;4937317;28;20404;-75
2022/06/14 06:03:28;;;;;;;2.22;0.17;;;14.20;99.90;;;;;;5013955;28;20022;-75
2022/06/14 06:05:59;;;;;;;5.22;1.00;;;14.30;99.90;;;;;;5013759;28;20030;-75
2022/06/14 06:08:34;;;;;;;7.55;0.70;;;14.40;99.90;;;;;;4996247;28;20033;-75
2022/06/14 06:11:13;;;;;;;2.83;0.10;;;14.40;99.90;;;;;;4996105;28;20080;-75
2022/06/14 06:13:51;;;;;;;5.47;0.70;;;14.50;99.90;;;;;;4996224;28;20395;-75
2022/06/14 06:16:25;;;;;;;2.77;0.57;;;14.50;99.90;;;;;;5013628;28;20029;-75
2022/06/14 06:18:57;;;;;;;4.85;0.65;;;14.60;99.90;;;;;;4995931;28;20296;-75
2022/06/14 06:21:37;;;;;;;7.35;0.20;;;14.70;99.90;;;;;;5014149;28;20034;-75
2022/06/14 06:24:45;;;;;;;3.17;0.43;;;14.80;99.90;;;;;;5013789;28;20034;-75
2022/06/14 06:27:12;;;;;;;9.88;0.65;;;14.90;99.90;;;;;;4915029;29;20091;-75
2022/06/14 06:29:58;;;;;;;1.42;0.10;;;14.90;99.90;;;;;;4999560;28;20041;-75
2022/06/14 06:32:28;;;;;;;2.83;0.30;;;15.10;99.90;;;;;;5014021;28;20482;-75
2022/06/14 06:34:54;;;;;;;5.97;0.52;;;15.10;99.90;;;;;;5013451;28;20057;-75
2022/06/14 06:37:58;;;;;;;4.13;0.30;;;15.30;99.90;;;;;;4996087;28;20022;-75
2022/06/14 06:40:24;;;;;;;3.35;0.70;;;15.50;99.90;;;;;;5013577;28;20029;-75
2022/06/14 06:43:05;;;;;;;1.75;0.20;;;15.70;99.90;;;;;;5013619;28;20029;-75
2022/06/14 06:45:38;;;;;;;4.88;0.13;;;15.90;99.90;;;;;;5013346;28;20081;-76
2022/06/14 06:48:15;;;;;;;2.38;0.43;;;16.00;99.90;;;;;;5013186;28;20014;-76
2022/06/14 06:50:48;;;;;;;0.75;0.00;;;16.10;99.90;;;;;;4995664;28;20036;-76
2022/06/14 06:53:17;;;;;;;1.65;0.00;;;16.20;99.90;;;;;;4995568;28;20054;-76
2022/06/14 06:56:08;;;;;;;1.85;0.00;;;16.30;99.90;;;;;;5013508;28;20471;-76
2022/06/14 06:58:51;;;;;;;3.25;0.22;;;16.40;99.90;;;;;;5001589;28;20034;-76
2022/06/14 07:01:20;;;;;;;2.72;0.25;;;16.50;99.90;;;;;;4999371;28;20037;-76
2022/06/14 07:04:15;;;;;;;2.67;0.00;;;17.00;99.90;;;;;;4999318;28;20487;-76
2022/06/14 07:06:44;;;;;;;4.50;0.20;;;16.90;99.90;;;;;;5016126;28;20471;-75
2022/06/14 07:09:17;;;;;;;1.60;0.08;;;17.10;99.90;;;;;;4999282;28;20376;-75
2022/06/14 07:11:50;;;;;;;0.50;0.00;;;17.10;99.90;;;;;;4999224;28;20116;-75
2022/06/14 07:14:30;;;;;;;2.67;0.05;;;17.30;99.90;;;;;;5017002;28;20033;-75
2022/06/14 07:17:17;;;;;;;0.17;0.10;;;17.40;99.90;;;;;;5017324;28;20060;-73
2022/06/14 07:19:44;;;;;;;2.05;0.00;;;17.30;99.90;;;;;;4999221;28;20025;-74
2022/06/14 07:22:20;;;;;;;2.72;0.32;;;17.40;99.90;;;;;;5016524;28;20026;-74
2022/06/14 07:25:03;;;;;;;2.30;0.15;;;17.60;99.90;;;;;;5017208;28;20022;-75
2022/06/14 07:27:39;;;;;;;4.20;0.00;;;17.70;99.90;;;;;;4999016;28;20030;-75
2022/06/14 07:30:24;;;;;;;0.85;0.10;;;17.80;99.90;;;;;;5016601;28;20022;-74
2022/06/14 07:32:53;;;;;;;0.93;0.00;;;17.80;97.50;;;;;;5016418;28;20037;-75
2022/06/14 07:35:42;;;;;;;2.45;0.15;;;17.80;99.90;;;;;;4998460;28;20030;-74
2022/06/14 07:38:22;;;;;;;2.60;0.00;;;18.10;97.40;;;;;;5015572;28;20400;-74
2022/06/14 07:41:25;;;;;;;2.97;0.00;;;18.10;96.90;;;;;;5016423;28;20518;-77
2022/06/14 07:44:16;;;;;;;1.98;0.00;;;18.20;96.90;;;;;;4966617;28;20402;-75
2022/06/14 07:47:01;;;;;;;3.55;0.30;;;18.20;96.60;;;;;;4998726;28;20050;-75
2022/06/14 07:49:39;;;;;;;1.98;0.00;;;18.30;98.10;;;;;;4998306;28;20037;-75
2022/06/14 07:52:36;;;;;;;0.98;0.00;;;18.40;98.40;;;;;;5016669;28;20105;-75
2022/06/14 07:55:11;;;;;;;5.15;0.35;;;18.60;97.40;;;;;;5016360;28;20026;-75
2022/06/14 07:57:42;;;;;;;0.10;0.00;;;18.50;94.20;;;;;;4998492;28;20018;-76
2022/06/14 08:03:17;;;;;;;0.60;0.00;;;18.70;96.60;;;;;;5016675;28;20557;-76
2022/06/14 08:05:46;;;;;;;0.55;0.00;;;18.80;95.00;;;;;;4998213;28;20037;-76
2022/06/14 08:08:18;;;;;;;2.08;0.00;;;18.80;92.40;;;;;;5015787;28;20033;-75
2022/06/14 08:10:48;;;;;;;0.43;0.00;;;18.90;91.40;;;;;;4998045;28;20026;-76
2022/06/14 08:13:20;;;;;;;2.85;0.30;;;18.80;93.20;;;;;;4998035;28;20049;-76
2022/06/14 08:15:52;;;;;;;1.33;0.00;;;18.80;93.30;;;;;;5016121;28;20383;-75
2022/06/14 08:18:30;;;;;;;0.15;0.00;;;19.00;92.90;;;;;;5015584;28;20430;-75
2022/06/14 08:21:21;;;;;;;0.50;0.00;;;19.30;90.00;;;;;;5015607;28;20022;-75
2022/06/14 08:23:56;;;;;;;1.52;0.00;;;19.30;90.40;;;;;;5015815;28;20026;-77
2022/06/14 08:26:42;;;;;;;0.95;0.00;;;19.30;86.40;;;;;;5015864;28;20030;-76
2022/06/14 08:29:20;;;;;;;1.17;0.03;;;19.30;88.50;;;;;;5015771;28;20030;-76
2022/06/14 08:32:07;;;;;;;2.80;0.00;;;19.10;87.80;;;;;;4997845;28;20072;-76
2022/06/14 08:34:45;;;;;;;1.30;0.00;;;19.00;90.50;;;;;;5015847;28;20026;-73
2022/06/14 08:37:36;;;;;;;0.82;0.00;;;19.10;86.60;;;;;;4997569;28;20018;-73
2022/06/14 08:40:18;;;;;;;3.63;0.10;;;19.10;89.10;;;;;;5015478;28;20026;-76
2022/06/14 08:42:58;;;;;;;0.47;0.00;;;19.10;89.90;;;;;;5015969;28;20129;-77
2022/06/14 08:45:33;;;;;;;3.72;0.35;;;19.30;93.20;;;;;;5015302;28;20046;-75
2022/06/14 08:48:36;;;;;;;0.73;0.00;;;19.40;87.10;;;;;;5015269;28;20075;-76
2022/06/14 08:51:25;;;;;;;1.17;0.00;;;19.40;87.00;;;;;;5014830;28;20049;-75
2022/06/14 08:54:06;;;;;;;1.75;0.00;;;19.40;85.60;;;;;;5014990;28;20030;-75
2022/06/14 08:57:05;;;;;;;0.43;0.00;;;19.60;91.10;;;;;;5014853;28;20129;-73
2022/06/14 08:59:41;;;;;;;0.38;0.03;;;19.80;87.40;;;;;;5014810;28;20549;-74
2022/06/14 09:02:12;;;;;;;0.88;0.13;;;19.80;87.50;;;;;;5014891;28;20029;-75
2022/06/14 09:04:38;;;;;;;3.72;0.00;;;19.70;85.70;;;;;;5019069;28;20049;-76
2022/06/14 09:07:35;;;;;;;0.28;0.00;;;19.90;88.30;;;;;;5015054;28;20030;-76
2022/06/14 09:10:07;;;;;;;3.17;0.03;;;20.00;87.90;;;;;;5014713;28;20046;-76
2022/06/14 09:13:00;;;;;;;0.10;0.00;;;20.10;84.60;;;;;;4997557;28;20034;-77
2022/06/14 09:15:53;;;;;;;2.33;0.20;;;20.20;85.60;;;;;;5014721;28;20030;-77
2022/06/14 09:18:39;;;;;;;0.90;0.00;;;20.10;83.60;;;;;;5015133;28;20526;-77
2022/06/14 09:21:16;;;;;;;0.93;0.20;;;19.80;87.60;;;;;;5013942;28;20049;-78
2022/06/14 09:24:02;;;;;;;3.33;0.00;;;19.30;84.40;;;;;;5016260;28;20529;-80
2022/06/14 09:26:34;;;;;;;0.77;0.10;;;19.00;89.60;;;;;;5015566;28;20037;-74
2022/06/14 09:29:12;;;;;;;2.90;0.20;;;18.90;87.30;;;;;;4997309;28;20026;-76
2022/06/14 09:31:43;;;;;;;0.00;0.00;;;18.70;86.70;;;;;;5014083;28;20029;-75
2022/06/14 09:34:31;;;;;;;0.80;0.00;;;18.60;87.40;;;;;;4996612;28;20037;-75
2022/06/14 09:37:24;;;;;;;1.65;0.13;;;18.80;90.70;;;;;;5014500;28;20049;-75
2022/06/14 09:40:20;;;;;;;1.17;0.00;;;19.10;87.50;;;;;;4996521;28;20022;-76
2022/06/14 09:42:49;;;;;;;3.65;0.00;;;19.50;82.90;;;;;;5014216;28;20030;-77
2022/06/14 09:45:41;;;;;;;5.47;0.00;;;19.90;83.60;;;;;;5013982;28;20076;-76
2022/06/14 09:48:19;;;;;;;1.65;0.00;;;20.30;85.60;;;;;;4996568;28;20018;-75
2022/06/14 09:51:25;;;;;;;2.78;0.00;;;20.80;81.20;;;;;;5014068;28;20495;-76
2022/06/14 09:54:22;;;;;;;4.38;0.85;;;21.10;80.40;;;;;;5013986;28;20120;-76
2022/06/14 09:57:15;;;;;;;1.17;0.00;;;21.50;78.40;;;;;;4996092;28;20482;-75
2022/06/14 10:00:13;;;;;;;0.63;0.00;;;21.30;71.40;;;;;;5013875;28;20029;-77
2022/06/14 10:03:02;;;;;;;0.88;0.00;;;20.80;75.30;;;;;;5015365;28;20018;-76
2022/06/14 10:05:41;;;;;;;0.60;0.30;;;20.30;80.70;;;;;;5013894;28;20087;-76
2022/06/14 10:08:09;;;;;;;;;;;20.10;82.60;;;;;;5014218;28;20502;-73
2022/06/14 10:11:06;;;;;;;0.20;0.00;;;20.10;87.30;;;;;;5013618;28;19905;-73
2022/06/14 10:13:37;;;;;;;0.40;0.00;;;20.70;84.40;;;;;;5013536;28;20029;-73
2022/06/14 10:16:37;;;;;;;1.15;0.00;;;21.40;76.10;;;;;;5013470;28;20022;-73
2022/06/14 10:19:30;;;;;;;1.90;0.00;;;21.90;74.70;;;;;;5013546;28;20455;-73
2022/06/14 10:22:13;;;;;;;3.05;0.00;;;22.10;73.80;;;;;;5013592;28;20022;-73
2022/06/14 10:25:10;;;;;;;2.05;0.52;;;22.00;71.20;;;;;;5013663;28;20096;-73
2022/06/14 10:31:09;;;;;;;1.50;0.00;;;21.50;74.70;;;;;;5013738;28;20088;-73
2022/06/14 10:33:53;;;;;;;0.70;0.00;;;21.20;75.90;;;;;;5016474;28;20026;-74
2022/06/14 10:36:50;;;;;;;3.10;0.20;;;21.10;77.30;;;;;;5017274;28;20026;-73
2022/06/14 10:39:41;;;;;;;0.63;0.13;;;21.10;78.00;;;;;;5017338;28;20022;-72
2022/06/14 10:42:26;;;;;;;1.95;0.43;;;21.10;77.30;;;;;;5017341;28;20030;-72
2022/06/14 10:45:12;;;;;;;3.22;0.10;;;21.40;78.30;;;;;;4999509;28;20040;-73
2022/06/14 10:48:13;;;;;;;0.25;0.00;;;21.70;71.90;;;;;;4999783;28;20034;-75
2022/06/14 10:51:32;;;;;;;0.80;0.05;;;21.60;72.40;;;;;;5017047;28;20038;-73
2022/06/14 10:54:16;;;;;;;4.82;0.10;;;21.70;77.10;;;;;;4967886;28;20567;-75
2022/06/14 10:56:56;;;;;;;3.83;0.20;;;21.70;75.80;;;;;;5017339;28;20022;-73
2022/06/14 10:59:30;;;;;;;3.15;0.50;;;21.60;72.80;;;;;;5017043;28;20034;-73
2022/06/14 11:02:07;;;;;;;1.65;0.17;;;21.60;76.10;;;;;;4997943;28;20094;-73
2022/06/14 11:04:57;;;;;;;1.42;0.00;;;21.60;71.60;;;;;;4997175;28;20061;-73
2022/06/14 11:07:57;;;;;;;1.90;0.00;;;21.50;69.20;;;;;;5014918;28;20026;-73
2022/06/14 11:10:35;;;;;;;0.55;0.00;;;21.50;73.50;;;;;;4997135;28;20490;-73
2022/06/14 11:13:30;;;;;;;0.52;0.00;;;21.60;76.00;;;;;;5015157;28;20506;-73
2022/06/14 11:16:04;;;;;;;1.52;0.00;;;21.50;71.50;;;;;;5015836;28;20069;-73
2022/06/14 11:18:58;;;;;;;1.65;0.00;;;21.60;73.20;;;;;;5016561;28;20037;-73
2022/06/14 11:21:55;;;;;;;0.90;0.00;;;22.10;73.50;;;;;;5016972;28;20500;-73
2022/06/14 11:24:33;;;;;;;2.20;0.47;;;22.40;67.70;;;;;;5016478;28;20106;-73
2022/06/14 11:27:08;;;;;;;1.90;0.10;;;22.70;69.40;;;;;;4999092;28;20021;-74
2022/06/14 11:29:51;;;;;;;0.17;0.00;;;22.70;64.90;;;;;;4998733;28;20022;-74
2022/06/14 11:32:23;;;;;;;0.13;0.00;;;22.80;65.50;;;;;;5016723;28;20021;-74
2022/06/14 11:35:24;;;;;;;0.70;0.00;;;22.40;65.70;;;;;;5016533;28;20026;-74
2022/06/14 11:38:07;;;;;;;0.98;0.00;;;22.30;71.00;;;;;;5016348;28;20022;-74
2022/06/14 11:40:39;;;;;;;0.77;0.15;;;22.30;70.60;;;;;;4998563;28;20014;-73
2022/06/14 11:43:32;;;;;;;0.55;0.00;;;22.40;67.80;;;;;;5016308;28;20022;-74
2022/06/14 11:46:14;;;;;;;2.72;0.00;;;22.40;69.60;;;;;;5016420;28;20101;-74
2022/06/14 11:49:02;;;;;;;4.13;0.45;;;22.40;67.60;;;;;;5016086;28;20148;-74
2022/06/14 11:52:13;;;;;;;0.65;0.03;;;22.40;67.60;;;;;;5016093;28;20030;-74
2022/06/14 11:54:59;;;;;;;0.45;0.00;;;22.50;69.80;;;;;;4917628;29;20079;-74
2022/06/14 11:57:30;;;;;;;1.35;0.00;;;22.70;65.90;;;;;;5009566;28;20425;-74
2022/06/14 12:00:34;;;;;;;0.38;0.00;;;23.20;64.70;;;;;;5016115;28;20018;-73
2022/06/14 12:03:24;;;;;;;1.50;0.22;;;24.10;64.90;;;;;;4965846;28;20038;-74
2022/06/14 12:06:02;;;;;;;0.55;0.00;;;24.90;62.60;;;;;;5016229;28;20399;-74
2022/06/14 12:08:48;;;;;;;0.90;0.20;;;25.40;59.40;;;;;;4998660;28;20038;-74
2022/06/14 12:11:24;;;;;;;0.93;0.00;;;25.30;57.20;;;;;;5015673;28;20028;-74
2022/06/14 12:14:32;;;;;;;1.33;0.15;;;24.70;55.90;;;;;;5016067;28;20036;-74
2022/06/14 12:17:43;;;;;;;2.20;0.00;;;24.20;57.10;;;;;;5002343;28;20066;-74
2022/06/14 12:20:10;;;;;;;2.05;0.00;;;24.10;59.40;;;;;;5010620;28;20030;-74
2022/06/14 12:22:56;;;;;;;1.90;0.22;;;24.20;58.40;;;;;;4997713;28;20018;-74
2022/06/14 12:28:45;;;;;;;2.63;0.00;;;24.30;54.00;;;;;;5015839;28;20518;-74
2022/06/14 12:31:36;;;;;;;3.25;0.15;;;23.80;59.00;;;;;;4997651;28;20034;-74
2022/06/14 12:34:20;;;;;;;1.95;0.00;;;23.90;58.60;;;;;;5015793;28;20041;-74
2022/06/14 12:37:05;;;;;;;1.17;0.00;;;24.60;57.80;;;;;;4998015;28;20037;-75
2022/06/14 12:39:37;;;;;;;1.50;0.00;;;25.30;56.90;;;;;;5015120;28;20054;-75
2022/06/14 12:42:20;;;;;;;0.52;0.10;;;25.40;53.60;;;;;;4998588;28;20032;-75
2022/06/14 12:44:57;;;;;;;2.30;0.00;;;25.30;52.80;;;;;;5015152;28;20113;-75
2022/06/14 12:47:42;;;;;;;1.27;0.00;;;25.30;53.80;;;;;;5015296;28;20116;-75
2022/06/14 12:50:32;;;;;;;0.28;0.00;;;25.50;55.60;;;;;;4997489;28;20525;-74
2022/06/14 12:53:06;;;;;;;0.90;0.00;;;25.70;53.40;;;;;;5015405;28;20364;-74
2022/06/14 12:55:46;;;;;;;3.22;0.20;;;25.50;54.00;;;;;;5014907;28;20026;-75
2022/06/14 12:58:46;;;;;;;0.47;0.00;;;25.00;57.30;;;;;;4997196;28;20033;-75
2022/06/14 13:01:39;;;;;;;0.63;0.00;;;24.80;55.90;;;;;;5015015;28;20482;-75
2022/06/14 13:04:14;;;;;;;4.10;0.50;;;24.60;55.70;;;;;;4997246;28;20026;-74
2022/06/14 13:07:12;;;;;;;2.47;0.00;;;24.30;58.60;;;;;;4997077;28;20065;-74
2022/06/14 13:09:53;;;;;;;;;;;24.00;57.70;;;;;;5015556;28;20022;-74
2022/06/14 13:12:49;;;;;;;2.35;0.38;;;24.00;58.70;;;;;;5014636;28;19906;-74
2022/06/14 13:15:26;;;;;;;1.05;0.00;;;24.30;58.30;;;;;;4979750;28;20068;-73
2022/06/14 13:18:17;;;;;;;1.90;0.00;;;24.30;56.60;;;;;;5014521;28;20030;-74
2022/06/14 13:21:10;;;;;;;0.00;0.00;;;24.10;55.00;;;;;;5010274;28;20068;-74
2022/06/14 13:23:52;;;;;;;2.20;0.00;;;23.80;56.00;;;;;;4998832;28;20030;-75
2022/06/14 13:26:24;;;;;;;0.60;0.00;;;23.90;60.00;;;;;;5014349;28;20437;-75
2022/06/14 13:29:08;;;;;;;0.65;0.00;;;24.00;57.60;;;;;;5014285;28;20025;-75
2022/06/14 13:31:58;;;;;;;1.20;0.00;;;24.10;57.30;;;;;;4996656;28;20080;-75
2022/06/14 13:34:24;;;;;;;0.73;0.00;;;24.00;56.30;;;;;;4996619;28;20383;-75
2022/06/14 13:37:02;;;;;;;0.63;0.00;;;24.50;55.40;;;;;;4996420;28;20032;-75
2022/06/14 13:39:52;;;;;;;0.50;0.00;;;25.20;53.70;;;;;;5014086;28;20099;-74
2022/06/14 13:42:31;;;;;;;0.30;0.00;;;26.20;54.90;;;;;;5014520;28;20026;-74
2022/06/14 13:45:05;;;;;;;3.15;0.15;;;27.20;53.10;;;;;;5014888;28;20022;-75
2022/06/14 13:47:43;;;;;;;0.38;0.00;;;27.50;50.70;;;;;;4996348;28;20029;-74
2022/06/14 13:50:27;;;;;;;3.70;0.10;;;27.70;53.70;;;;;;5041175;23;20032;-75
2022/06/14 13:53:16;;;;;;;1.88;0.10;;;28.40;50.30;;;;;;5093780;28;20073;-76
2022/06/14 13:55:54;;;;;;;0.82;0.00;;;28.20;49.00;;;;;;5093946;28;20484;-76
2022/06/14 13:58:42;;;;;;;1.60;0.00;;;27.60;47.70;;;;;;5094372;28;20021;-75
2022/06/14 14:01:18;;;;;;;0.43;0.00;;;26.90;49.20;;;;;;5075775;28;20049;-75
2022/06/14 14:03:50;;;;;;;2.40;0.00;;;26.20;52.10;;;;;;5093585;28;20388;-74
2022/06/14 14:06:34;;;;;;;1.45;0.00;;;25.50;51.20;;;;;;5093437;28;20039;-74
2022/06/14 14:09:03;;;;;;;0.20;0.00;;;24.90;51.50;;;;;;5094028;28;20411;-74
2022/06/14 14:11:56;;;;;;;0.22;0.00;;;24.50;53.00;;;;;;5094150;28;20106;-74
2022/06/14 14:14:30;;;;;;;1.55;0.00;;;24.20;54.50;;;;;;5075312;28;20023;-74
2022/06/14 14:17:05;;;;;;;0.43;0.00;;;23.90;54.30;;;;;;5093548;28;20069;-74